Malden, MA

1:58 PM EST on March 04, 2015 (GMT -0500)
East Milton | Change Station
CLOSE
Current Station
Airport
Location: East Milton,
Elevation: 630 ft
Nearby Weather Stations

Elev 630 ft 42.21 °N, 71.11 °W | Updated 4 minutes ago

Mostly Cloudy
Mostly Cloudy
40 °F
Feels Like 30 °F
N
21
Wind Variable Wind from West
Gusts 32 mph

Today
High -- | Low -- °F
--% Chance of Precip.
Yesterday
High -- | Low -- °F
Precip. -- in
6:15 AM 5:37 PM
Waxing Gibbous, 99% visible
Pressure 29.78 in
Visibility -9999.0 miles
Clouds
Windchill 30 °F
Dew Point 29 °F
Humidity 65%
Rainfall 0.04 in
Snow Depth Not available.
UV Not available.
Pollen .40 out of 12
Air Quality Not available.
Flu Activity Not available.
METAR KMQE 041854Z AUTO 27018G28KT 04/M02 A2973 RMK AO1 PK WND 27029/1806 SLP084 T00441017

More Conditions Fewer Conditions

Pressure 29.78 in
Visibility -9999.0 miles
Clouds
Windchill 30 °F
Dew Point 29 °F
Humidity 65%
Rainfall 0.04 in
Snow Depth Not available.
UV Not available.
Pollen .40 out of 12
Air Quality Not available.
Flu Activity Not available.
METAR KMQE 041854Z AUTO 27018G28KT 04/M02 A2973 RMK AO1 PK WND 27029/1806 SLP084 T00441017

More Conditions Fewer Conditions

10-Day Weather Forecast

Almanac

Astronomy

Mar. 04, 2015 Rise Set
Actual Time
Civil Twilight
Nautical Twilight
Astronomical Twilight
Moon
Length of Visible Light
Length of Day
Tomorrow will be .
, % of the Moon is Illuminated

Today's Extremes

State Highs State Lows

Community

WunderPhotos

Upload Photos

1,802,536 photos uploaded!

WunderBlogs® & News

Nearby

Air Quality

  Air Quality AQ Index Pollutant
Not available.

Snow Depth

Station Depth Elevation

Earthquake Activity

City Distance Mag. Time & Date
Minimum magnitude displayed is 2.5.

Coastal Water Temperatures

Place Temperature

Nearby Weather Stations